Terminal Aerodrome Forecast
Issued by NWS Indianapolis, IN

Home | Current Version | Previous Version | Text Only | Print | Product List | Glossary On
Versions: 1 2 3 4 5 6 7 8 9 10 11 12 13 14 15 16 17 18 19 20 21 22 23 24 25 26
000
FTUS43 KIND 302320
TAFIND
TAF
KIND 302320Z 3100/0106 24009KT P6SM SCT045 BKN090
     FM310100 21004KT P6SM SCT250
     FM310900 21002KT 3SM BR SCT250
     FM311500 23008KT P6SM SCT040 SCT250
     FM010100 20004KT P6SM SCT250=

USA.gov is the U.S. government's official web portal to all federal, state and local government web resources and services.